sensor_id;sensor_type;location;lat;lon;timestamp;P1;durP1;ratioP1;P2;durP2;ratioP2
45077;SDS011;60508;42.622;25.416;2024-03-02T00:00:10;80.50;;;39.38;;
45077;SDS011;60508;42.622;25.416;2024-03-02T00:02:59;84.97;;;39.95;;
45077;SDS011;60508;42.622;25.416;2024-03-02T00:05:26;109.68;;;40.42;;
45077;SDS011;60508;42.622;25.416;2024-03-02T00:07:53;108.95;;;44.42;;
45077;SDS011;60508;42.622;25.416;2024-03-02T00:10:41;110.82;;;41.80;;
45077;SDS011;60508;42.622;25.416;2024-03-02T00:13:08;99.47;;;41.40;;
45077;SDS011;60508;42.622;25.416;2024-03-02T00:15:42;89.13;;;38.97;;
45077;SDS011;60508;42.622;25.416;2024-03-02T00:18:33;85.35;;;37.47;;
45077;SDS011;60508;42.622;25.416;2024-03-02T00:21:01;80.85;;;38.75;;
45077;SDS011;60508;42.622;25.416;2024-03-02T00:23:32;89.13;;;39.92;;
45077;SDS011;60508;42.622;25.416;2024-03-02T00:26:01;93.25;;;40.55;;
45077;SDS011;60508;42.622;25.416;2024-03-02T00:28:47;94.65;;;45.45;;
45077;SDS011;60508;42.622;25.416;2024-03-02T00:31:16;112.13;;;53.70;;
45077;SDS011;60508;42.622;25.416;2024-03-02T00:33:47;98.65;;;44.28;;
45077;SDS011;60508;42.622;25.416;2024-03-02T00:36:15;92.60;;;39.83;;
45077;SDS011;60508;42.622;25.416;2024-03-02T00:39:03;100.05;;;40.83;;
45077;SDS011;60508;42.622;25.416;2024-03-02T00:44:06;101.63;;;38.30;;
45077;SDS011;60508;42.622;25.416;2024-03-02T00:46:39;95.40;;;39.90;;
45077;SDS011;60508;42.622;25.416;2024-03-02T00:49:11;89.25;;;40.55;;
45077;SDS011;60508;42.622;25.416;2024-03-02T00:52:09;301.33;;;45.85;;
45077;SDS011;60508;42.622;25.416;2024-03-02T00:54:36;107.80;;;47.88;;
45077;SDS011;60508;42.622;25.416;2024-03-02T00:57:02;99.53;;;42.13;;
45077;SDS011;60508;42.622;25.416;2024-03-02T00:59:50;105.50;;;41.05;;
45077;SDS011;60508;42.622;25.416;2024-03-02T01:02:16;88.10;;;41.63;;
45077;SDS011;60508;42.622;25.416;2024-03-02T01:04:43;108.03;;;41.08;;
45077;SDS011;60508;42.622;25.416;2024-03-02T01:07:09;108.15;;;42.42;;
45077;SDS011;60508;42.622;25.416;2024-03-02T01:09:35;102.82;;;39.67;;
45077;SDS011;60508;42.622;25.416;2024-03-02T01:12:02;99.47;;;38.70;;
45077;SDS011;60508;42.622;25.416;2024-03-02T01:14:28;104.95;;;41.17;;
45077;SDS011;60508;42.622;25.416;2024-03-02T01:17:15;95.68;;;42.03;;
45077;SDS011;60508;42.622;25.416;2024-03-02T01:19:41;105.65;;;38.95;;
45077;SDS011;60508;42.622;25.416;2024-03-02T01:22:08;92.70;;;39.03;;
45077;SDS011;60508;42.622;25.416;2024-03-02T01:24:54;95.53;;;37.25;;
45077;SDS011;60508;42.622;25.416;2024-03-02T01:27:21;98.32;;;39.55;;
45077;SDS011;60508;42.622;25.416;2024-03-02T01:29:47;100.57;;;37.47;;
45077;SDS011;60508;42.622;25.416;2024-03-02T01:32:13;108.47;;;38.40;;
45077;SDS011;60508;42.622;25.416;2024-03-02T01:34:40;108.43;;;39.50;;
45077;SDS011;60508;42.622;25.416;2024-03-02T01:37:06;84.93;;;38.33;;
45077;SDS011;60508;42.622;25.416;2024-03-02T01:39:33;95.00;;;36.38;;
45077;SDS011;60508;42.622;25.416;2024-03-02T01:41:59;88.30;;;36.83;;
45077;SDS011;60508;42.622;25.416;2024-03-02T01:44:25;96.53;;;39.55;;
45077;SDS011;60508;42.622;25.416;2024-03-02T01:47:12;93.50;;;35.72;;
45077;SDS011;60508;42.622;25.416;2024-03-02T01:49:38;107.30;;;41.08;;
45077;SDS011;60508;42.622;25.416;2024-03-02T01:52:07;88.03;;;38.72;;
45077;SDS011;60508;42.622;25.416;2024-03-02T01:54:53;92.13;;;36.13;;
45077;SDS011;60508;42.622;25.416;2024-03-02T01:57:20;189.27;;;36.63;;
45077;SDS011;60508;42.622;25.416;2024-03-02T01:59:46;92.85;;;38.63;;
45077;SDS011;60508;42.622;25.416;2024-03-02T02:02:16;100.97;;;40.05;;
45077;SDS011;60508;42.622;25.416;2024-03-02T02:04:43;105.00;;;37.50;;
45077;SDS011;60508;42.622;25.416;2024-03-02T02:07:09;98.03;;;37.65;;
45077;SDS011;60508;42.622;25.416;2024-03-02T02:09:36;80.20;;;36.28;;
45077;SDS011;60508;42.622;25.416;2024-03-02T02:12:02;103.50;;;36.45;;
45077;SDS011;60508;42.622;25.416;2024-03-02T02:14:52;94.97;;;30.73;;
45077;SDS011;60508;42.622;25.416;2024-03-02T02:17:23;95.47;;;33.03;;
45077;SDS011;60508;42.622;25.416;2024-03-02T02:19:50;83.32;;;30.23;;
45077;SDS011;60508;42.622;25.416;2024-03-02T02:22:16;83.80;;;31.15;;
45077;SDS011;60508;42.622;25.416;2024-03-02T02:24:42;90.05;;;29.77;;
45077;SDS011;60508;42.622;25.416;2024-03-02T02:27:29;70.72;;;29.70;;
45077;SDS011;60508;42.622;25.416;2024-03-02T02:29:56;51.75;;;25.30;;
45077;SDS011;60508;42.622;25.416;2024-03-02T02:32:43;43.17;;;23.02;;
45077;SDS011;60508;42.622;25.416;2024-03-02T02:35:09;45.20;;;23.63;;
45077;SDS011;60508;42.622;25.416;2024-03-02T02:37:36;56.33;;;26.90;;
45077;SDS011;60508;42.622;25.416;2024-03-02T02:40:02;66.13;;;30.00;;
45077;SDS011;60508;42.622;25.416;2024-03-02T02:42:31;58.72;;;26.42;;
45077;SDS011;60508;42.622;25.416;2024-03-02T02:44:58;62.55;;;29.58;;
45077;SDS011;60508;42.622;25.416;2024-03-02T02:47:25;80.05;;;29.23;;
45077;SDS011;60508;42.622;25.416;2024-03-02T02:49:52;77.05;;;28.65;;
45077;SDS011;60508;42.622;25.416;2024-03-02T02:52:39;66.15;;;28.73;;
45077;SDS011;60508;42.622;25.416;2024-03-02T02:55:07;66.38;;;28.85;;
45077;SDS011;60508;42.622;25.416;2024-03-02T02:57:35;63.88;;;29.27;;
45077;SDS011;60508;42.622;25.416;2024-03-02T03:00:23;75.13;;;30.25;;
45077;SDS011;60508;42.622;25.416;2024-03-02T03:02:50;79.47;;;28.55;;
45077;SDS011;60508;42.622;25.416;2024-03-02T03:05:16;78.03;;;28.20;;
45077;SDS011;60508;42.622;25.416;2024-03-02T03:07:43;73.30;;;29.70;;
45077;SDS011;60508;42.622;25.416;2024-03-02T03:10:10;68.90;;;27.35;;
45077;SDS011;60508;42.622;25.416;2024-03-02T03:12:57;74.90;;;28.70;;
45077;SDS011;60508;42.622;25.416;2024-03-02T03:15:25;77.78;;;32.47;;
45077;SDS011;60508;42.622;25.416;2024-03-02T03:17:51;81.60;;;31.05;;
45077;SDS011;60508;42.622;25.416;2024-03-02T03:20:18;81.40;;;32.55;;
45077;SDS011;60508;42.622;25.416;2024-03-02T03:22:44;80.47;;;30.88;;
45077;SDS011;60508;42.622;25.416;2024-03-02T03:25:30;74.70;;;32.35;;
45077;SDS011;60508;42.622;25.416;2024-03-02T03:27:57;82.75;;;30.27;;
45077;SDS011;60508;42.622;25.416;2024-03-02T03:30:43;78.28;;;29.05;;
45077;SDS011;60508;42.622;25.416;2024-03-02T03:33:10;65.15;;;27.30;;
45077;SDS011;60508;42.622;25.416;2024-03-02T03:35:36;61.28;;;27.63;;
45077;SDS011;60508;42.622;25.416;2024-03-02T03:38:23;74.63;;;28.67;;
45077;SDS011;60508;42.622;25.416;2024-03-02T03:40:49;93.07;;;37.45;;
45077;SDS011;60508;42.622;25.416;2024-03-02T03:43:15;90.68;;;37.65;;
45077;SDS011;60508;42.622;25.416;2024-03-02T03:46:02;88.93;;;34.10;;
45077;SDS011;60508;42.622;25.416;2024-03-02T03:48:30;80.45;;;34.03;;
45077;SDS011;60508;42.622;25.416;2024-03-02T03:51:17;79.22;;;29.35;;
45077;SDS011;60508;42.622;25.416;2024-03-02T03:53:43;86.72;;;29.33;;
45077;SDS011;60508;42.622;25.416;2024-03-02T03:56:10;72.68;;;30.10;;
45077;SDS011;60508;42.622;25.416;2024-03-02T03:58:56;67.35;;;27.17;;
45077;SDS011;60508;42.622;25.416;2024-03-02T04:01:22;75.95;;;29.88;;
45077;SDS011;60508;42.622;25.416;2024-03-02T04:03:49;77.47;;;28.40;;
45077;SDS011;60508;42.622;25.416;2024-03-02T04:06:35;70.60;;;29.30;;
45077;SDS011;60508;42.622;25.416;2024-03-02T04:09:05;67.03;;;28.60;;
45077;SDS011;60508;42.622;25.416;2024-03-02T04:11:31;65.53;;;28.23;;
45077;SDS011;60508;42.622;25.416;2024-03-02T04:14:18;63.92;;;27.35;;
45077;SDS011;60508;42.622;25.416;2024-03-02T04:16:44;71.28;;;27.23;;
45077;SDS011;60508;42.622;25.416;2024-03-02T04:19:31;81.93;;;27.80;;
45077;SDS011;60508;42.622;25.416;2024-03-02T04:21:57;74.30;;;26.42;;
45077;SDS011;60508;42.622;25.416;2024-03-02T04:24:23;60.75;;;26.17;;
45077;SDS011;60508;42.622;25.416;2024-03-02T04:26:50;63.42;;;28.75;;
45077;SDS011;60508;42.622;25.416;2024-03-02T04:29:16;74.03;;;28.23;;
45077;SDS011;60508;42.622;25.416;2024-03-02T04:31:42;61.08;;;28.77;;
45077;SDS011;60508;42.622;25.416;2024-03-02T04:34:09;80.35;;;31.67;;
45077;SDS011;60508;42.622;25.416;2024-03-02T04:36:36;84.32;;;34.05;;
45077;SDS011;60508;42.622;25.416;2024-03-02T04:39:02;97.88;;;32.42;;
45077;SDS011;60508;42.622;25.416;2024-03-02T04:41:49;101.45;;;34.35;;
45077;SDS011;60508;42.622;25.416;2024-03-02T04:44:16;86.65;;;34.33;;
45077;SDS011;60508;42.622;25.416;2024-03-02T04:46:42;88.25;;;33.28;;
45077;SDS011;60508;42.622;25.416;2024-03-02T04:49:08;83.80;;;32.63;;
45077;SDS011;60508;42.622;25.416;2024-03-02T04:51:55;69.70;;;31.05;;
45077;SDS011;60508;42.622;25.416;2024-03-02T04:54:22;82.80;;;32.58;;
45077;SDS011;60508;42.622;25.416;2024-03-02T04:56:49;81.57;;;32.53;;
45077;SDS011;60508;42.622;25.416;2024-03-02T04:59:16;74.88;;;30.45;;
45077;SDS011;60508;42.622;25.416;2024-03-02T05:01:43;82.80;;;33.65;;
45077;SDS011;60508;42.622;25.416;2024-03-02T05:04:10;86.20;;;32.55;;
45077;SDS011;60508;42.622;25.416;2024-03-02T05:06:57;87.80;;;32.22;;
45077;SDS011;60508;42.622;25.416;2024-03-02T05:09:24;84.07;;;30.73;;
45077;SDS011;60508;42.622;25.416;2024-03-02T05:11:50;86.22;;;28.27;;
45077;SDS011;60508;42.622;25.416;2024-03-02T05:14:36;73.60;;;28.45;;
45077;SDS011;60508;42.622;25.416;2024-03-02T05:17:03;76.97;;;31.42;;
45077;SDS011;60508;42.622;25.416;2024-03-02T05:19:49;72.68;;;29.52;;
45077;SDS011;60508;42.622;25.416;2024-03-02T05:22:16;74.00;;;29.88;;
45077;SDS011;60508;42.622;25.416;2024-03-02T05:25:03;73.45;;;30.65;;
45077;SDS011;60508;42.622;25.416;2024-03-02T05:27:30;77.53;;;33.60;;
45077;SDS011;60508;42.622;25.416;2024-03-02T05:29:59;97.60;;;37.80;;
45077;SDS011;60508;42.622;25.416;2024-03-02T05:32:47;76.80;;;31.33;;
45077;SDS011;60508;42.622;25.416;2024-03-02T05:35:13;82.90;;;31.95;;
45077;SDS011;60508;42.622;25.416;2024-03-02T05:37:40;93.25;;;34.47;;
45077;SDS011;60508;42.622;25.416;2024-03-02T05:40:07;84.40;;;35.15;;
45077;SDS011;60508;42.622;25.416;2024-03-02T05:42:33;103.85;;;35.45;;
45077;SDS011;60508;42.622;25.416;2024-03-02T05:45:00;90.80;;;37.63;;
45077;SDS011;60508;42.622;25.416;2024-03-02T05:47:26;92.05;;;34.53;;
45077;SDS011;60508;42.622;25.416;2024-03-02T05:50:14;96.63;;;35.97;;
45077;SDS011;60508;42.622;25.416;2024-03-02T05:52:40;83.97;;;35.97;;
45077;SDS011;60508;42.622;25.416;2024-03-02T05:55:26;91.50;;;35.95;;
45077;SDS011;60508;42.622;25.416;2024-03-02T05:57:53;86.30;;;35.72;;
45077;SDS011;60508;42.622;25.416;2024-03-02T06:00:58;85.85;;;35.67;;
45077;SDS011;60508;42.622;25.416;2024-03-02T06:03:24;83.93;;;34.22;;
45077;SDS011;60508;42.622;25.416;2024-03-02T06:05:50;91.47;;;34.08;;
45077;SDS011;60508;42.622;25.416;2024-03-02T06:08:17;113.20;;;40.38;;
45077;SDS011;60508;42.622;25.416;2024-03-02T06:10:44;192.73;;;49.63;;
45077;SDS011;60508;42.622;25.416;2024-03-02T06:13:10;141.35;;;54.25;;
45077;SDS011;60508;42.622;25.416;2024-03-02T06:15:36;90.30;;;34.85;;
45077;SDS011;60508;42.622;25.416;2024-03-02T06:18:03;105.25;;;40.47;;
45077;SDS011;60508;42.622;25.416;2024-03-02T06:20:29;63.88;;;28.58;;
45077;SDS011;60508;42.622;25.416;2024-03-02T06:22:57;65.65;;;30.05;;
45077;SDS011;60508;42.622;25.416;2024-03-02T06:25:23;71.75;;;30.42;;
45077;SDS011;60508;42.622;25.416;2024-03-02T06:27:49;57.55;;;27.92;;
45077;SDS011;60508;42.622;25.416;2024-03-02T06:30:36;81.18;;;29.83;;
45077;SDS011;60508;42.622;25.416;2024-03-02T06:33:02;69.75;;;32.60;;
45077;SDS011;60508;42.622;25.416;2024-03-02T06:35:29;78.10;;;29.02;;
45077;SDS011;60508;42.622;25.416;2024-03-02T06:37:56;82.95;;;33.50;;
45077;SDS011;60508;42.622;25.416;2024-03-02T06:40:22;76.65;;;28.23;;
45077;SDS011;60508;42.622;25.416;2024-03-02T06:42:48;88.32;;;33.83;;
45077;SDS011;60508;42.622;25.416;2024-03-02T06:45:15;80.93;;;30.48;;
45077;SDS011;60508;42.622;25.416;2024-03-02T06:48:01;78.22;;;32.83;;
45077;SDS011;60508;42.622;25.416;2024-03-02T06:50:33;84.28;;;33.88;;
45077;SDS011;60508;42.622;25.416;2024-03-02T06:53:19;85.93;;;33.20;;
45077;SDS011;60508;42.622;25.416;2024-03-02T06:55:46;81.45;;;32.50;;
45077;SDS011;60508;42.622;25.416;2024-03-02T06:58:13;86.47;;;32.90;;
45077;SDS011;60508;42.622;25.416;2024-03-02T07:00:41;86.87;;;33.40;;
45077;SDS011;60508;42.622;25.416;2024-03-02T07:03:10;90.55;;;36.15;;
45077;SDS011;60508;42.622;25.416;2024-03-02T07:05:56;87.80;;;35.08;;
45077;SDS011;60508;42.622;25.416;2024-03-02T07:08:23;90.90;;;35.92;;
45077;SDS011;60508;42.622;25.416;2024-03-02T07:10:49;78.65;;;31.83;;
45077;SDS011;60508;42.622;25.416;2024-03-02T07:13:36;86.72;;;37.22;;
45077;SDS011;60508;42.622;25.416;2024-03-02T07:16:02;86.57;;;39.80;;
45077;SDS011;60508;42.622;25.416;2024-03-02T07:18:32;74.45;;;30.88;;
45077;SDS011;60508;42.622;25.416;2024-03-02T07:21:27;67.88;;;28.60;;
45077;SDS011;60508;42.622;25.416;2024-03-02T07:23:53;70.40;;;30.13;;
45077;SDS011;60508;42.622;25.416;2024-03-02T07:26:20;65.60;;;29.20;;
45077;SDS011;60508;42.622;25.416;2024-03-02T07:28:46;61.28;;;27.63;;
45077;SDS011;60508;42.622;25.416;2024-03-02T07:31:16;66.93;;;29.75;;
45077;SDS011;60508;42.622;25.416;2024-03-02T07:33:46;68.40;;;28.95;;
45077;SDS011;60508;42.622;25.416;2024-03-02T07:36:32;60.55;;;27.48;;
45077;SDS011;60508;42.622;25.416;2024-03-02T07:38:59;74.65;;;32.78;;
45077;SDS011;60508;42.622;25.416;2024-03-02T07:41:45;76.30;;;32.60;;
45077;SDS011;60508;42.622;25.416;2024-03-02T07:44:12;69.53;;;29.95;;
45077;SDS011;60508;42.622;25.416;2024-03-02T07:47:02;73.32;;;30.75;;
45077;SDS011;60508;42.622;25.416;2024-03-02T07:49:29;82.43;;;33.65;;
45077;SDS011;60508;42.622;25.416;2024-03-02T07:51:56;69.60;;;29.63;;
45077;SDS011;60508;42.622;25.416;2024-03-02T07:54:23;76.00;;;32.63;;
45077;SDS011;60508;42.622;25.416;2024-03-02T07:56:49;71.30;;;32.50;;
45077;SDS011;60508;42.622;25.416;2024-03-02T07:59:16;73.85;;;32.72;;
45077;SDS011;60508;42.622;25.416;2024-03-02T08:01:42;73.03;;;31.45;;
45077;SDS011;60508;42.622;25.416;2024-03-02T08:04:29;80.65;;;30.80;;
45077;SDS011;60508;42.622;25.416;2024-03-02T08:06:55;65.97;;;30.33;;
45077;SDS011;60508;42.622;25.416;2024-03-02T08:09:21;75.90;;;33.03;;
45077;SDS011;60508;42.622;25.416;2024-03-02T08:11:48;72.90;;;30.23;;
45077;SDS011;60508;42.622;25.416;2024-03-02T08:14:14;75.80;;;33.53;;
45077;SDS011;60508;42.622;25.416;2024-03-02T08:17:01;60.47;;;29.10;;
45077;SDS011;60508;42.622;25.416;2024-03-02T08:19:27;66.47;;;32.33;;
45077;SDS011;60508;42.622;25.416;2024-03-02T08:21:54;67.97;;;33.92;;
45077;SDS011;60508;42.622;25.416;2024-03-02T08:24:41;70.53;;;31.80;;
45077;SDS011;60508;42.622;25.416;2024-03-02T08:27:07;64.50;;;31.13;;
45077;SDS011;60508;42.622;25.416;2024-03-02T08:29:55;66.57;;;30.13;;
45077;SDS011;60508;42.622;25.416;2024-03-02T08:32:21;70.90;;;33.20;;
45077;SDS011;60508;42.622;25.416;2024-03-02T08:34:48;70.60;;;30.52;;
45077;SDS011;60508;42.622;25.416;2024-03-02T08:37:34;69.65;;;31.08;;
45077;SDS011;60508;42.622;25.416;2024-03-02T08:40:02;69.80;;;32.53;;
45077;SDS011;60508;42.622;25.416;2024-03-02T08:42:50;69.93;;;33.55;;
45077;SDS011;60508;42.622;25.416;2024-03-02T08:45:16;64.43;;;31.23;;
45077;SDS011;60508;42.622;25.416;2024-03-02T08:47:43;77.00;;;34.58;;
45077;SDS011;60508;42.622;25.416;2024-03-02T08:50:09;69.63;;;33.45;;
45077;SDS011;60508;42.622;25.416;2024-03-02T08:52:56;71.90;;;33.92;;
45077;SDS011;60508;42.622;25.416;2024-03-02T08:55:22;76.72;;;33.92;;
45077;SDS011;60508;42.622;25.416;2024-03-02T08:57:48;62.35;;;31.30;;
45077;SDS011;60508;42.622;25.416;2024-03-02T09:00:16;64.30;;;30.60;;
45077;SDS011;60508;42.622;25.416;2024-03-02T09:02:44;85.47;;;39.42;;
45077;SDS011;60508;42.622;25.416;2024-03-02T09:05:30;81.43;;;38.05;;
45077;SDS011;60508;42.622;25.416;2024-03-02T09:07:57;77.15;;;36.97;;
45077;SDS011;60508;42.622;25.416;2024-03-02T09:10:23;74.75;;;36.25;;
45077;SDS011;60508;42.622;25.416;2024-03-02T09:12:49;78.85;;;35.40;;
45077;SDS011;60508;42.622;25.416;2024-03-02T09:15:16;77.20;;;35.00;;
45077;SDS011;60508;42.622;25.416;2024-03-02T09:17:42;82.07;;;41.17;;
45077;SDS011;60508;42.622;25.416;2024-03-02T09:20:29;91.05;;;42.13;;
45077;SDS011;60508;42.622;25.416;2024-03-02T09:22:55;89.88;;;40.42;;
45077;SDS011;60508;42.622;25.416;2024-03-02T09:25:41;79.30;;;37.97;;
45077;SDS011;60508;42.622;25.416;2024-03-02T09:28:08;87.43;;;39.90;;
45077;SDS011;60508;42.622;25.416;2024-03-02T09:30:34;79.88;;;37.25;;
45077;SDS011;60508;42.622;25.416;2024-03-02T09:33:04;71.07;;;33.72;;
45077;SDS011;60508;42.622;25.416;2024-03-02T09:35:55;63.17;;;30.63;;
45077;SDS011;60508;42.622;25.416;2024-03-02T09:38:21;62.10;;;29.90;;
45077;SDS011;60508;42.622;25.416;2024-03-02T09:41:08;50.67;;;27.63;;
45077;SDS011;60508;42.622;25.416;2024-03-02T09:43:34;50.42;;;24.95;;
45077;SDS011;60508;42.622;25.416;2024-03-02T09:46:21;46.28;;;25.27;;
45077;SDS011;60508;42.622;25.416;2024-03-02T09:48:47;53.60;;;25.35;;
45077;SDS011;60508;42.622;25.416;2024-03-02T09:51:34;51.28;;;26.25;;
45077;SDS011;60508;42.622;25.416;2024-03-02T09:54:01;52.63;;;26.63;;
45077;SDS011;60508;42.622;25.416;2024-03-02T09:56:28;50.38;;;26.20;;
45077;SDS011;60508;42.622;25.416;2024-03-02T09:58:54;52.50;;;27.52;;
45077;SDS011;60508;42.622;25.416;2024-03-02T10:01:55;43.97;;;24.70;;
45077;SDS011;60508;42.622;25.416;2024-03-02T10:04:28;59.05;;;32.55;;
45077;SDS011;60508;42.622;25.416;2024-03-02T10:07:18;55.75;;;25.92;;
45077;SDS011;60508;42.622;25.416;2024-03-02T10:09:46;46.40;;;26.88;;
45077;SDS011;60508;42.622;25.416;2024-03-02T10:12:14;44.45;;;25.48;;
45077;SDS011;60508;42.622;25.416;2024-03-02T10:14:42;48.03;;;27.47;;
45077;SDS011;60508;42.622;25.416;2024-03-02T10:17:09;48.97;;;27.27;;
45077;SDS011;60508;42.622;25.416;2024-03-02T10:19:37;55.20;;;27.20;;
45077;SDS011;60508;42.622;25.416;2024-03-02T10:22:05;51.95;;;27.95;;
45077;SDS011;60508;42.622;25.416;2024-03-02T10:24:56;50.78;;;28.17;;
45077;SDS011;60508;42.622;25.416;2024-03-02T10:27:23;48.42;;;25.75;;
45077;SDS011;60508;42.622;25.416;2024-03-02T10:30:12;46.90;;;27.98;;
45077;SDS011;60508;42.622;25.416;2024-03-02T10:32:39;51.50;;;29.77;;
45077;SDS011;60508;42.622;25.416;2024-03-02T10:35:05;47.10;;;28.80;;
45077;SDS011;60508;42.622;25.416;2024-03-02T10:37:32;54.22;;;27.42;;
45077;SDS011;60508;42.622;25.416;2024-03-02T10:40:22;53.47;;;29.33;;
45077;SDS011;60508;42.622;25.416;2024-03-02T10:42:50;60.65;;;29.23;;
45077;SDS011;60508;42.622;25.416;2024-03-02T10:45:19;62.47;;;28.20;;
45077;SDS011;60508;42.622;25.416;2024-03-02T10:47:48;64.40;;;30.80;;
45077;SDS011;60508;42.622;25.416;2024-03-02T10:50:16;69.47;;;32.58;;
45077;SDS011;60508;42.622;25.416;2024-03-02T10:52:42;61.15;;;31.98;;
45077;SDS011;60508;42.622;25.416;2024-03-02T10:55:09;69.90;;;33.65;;
45077;SDS011;60508;42.622;25.416;2024-03-02T10:57:41;65.05;;;30.83;;
45077;SDS011;60508;42.622;25.416;2024-03-02T11:00:12;66.88;;;32.63;;
45077;SDS011;60508;42.622;25.416;2024-03-02T11:02:46;61.20;;;28.50;;
45077;SDS011;60508;42.622;25.416;2024-03-02T11:05:38;62.13;;;30.23;;
45077;SDS011;60508;42.622;25.416;2024-03-02T11:08:12;58.00;;;30.27;;
45077;SDS011;60508;42.622;25.416;2024-03-02T11:11:06;57.50;;;29.05;;
45077;SDS011;60508;42.622;25.416;2024-03-02T11:13:37;55.92;;;27.02;;
45077;SDS011;60508;42.622;25.416;2024-03-02T11:16:35;47.72;;;26.08;;
45077;SDS011;60508;42.622;25.416;2024-03-02T11:19:03;53.45;;;28.50;;
45077;SDS011;60508;42.622;25.416;2024-03-02T11:23:59;49.13;;;25.20;;
45077;SDS011;60508;42.622;25.416;2024-03-02T11:26:28;51.30;;;26.90;;
45077;SDS011;60508;42.622;25.416;2024-03-02T11:28:54;54.20;;;29.17;;
45077;SDS011;60508;42.622;25.416;2024-03-02T11:31:57;52.97;;;26.33;;
45077;SDS011;60508;42.622;25.416;2024-03-02T11:34:35;48.33;;;24.45;;
45077;SDS011;60508;42.622;25.416;2024-03-02T11:37:22;46.83;;;24.38;;
45077;SDS011;60508;42.622;25.416;2024-03-02T11:39:50;52.90;;;26.33;;
45077;SDS011;60508;42.622;25.416;2024-03-02T11:42:17;52.85;;;27.23;;
45077;SDS011;60508;42.622;25.416;2024-03-02T11:45:04;51.75;;;26.67;;
45077;SDS011;60508;42.622;25.416;2024-03-02T11:47:34;48.83;;;25.55;;
45077;SDS011;60508;42.622;25.416;2024-03-02T11:50:00;42.72;;;22.27;;
45077;SDS011;60508;42.622;25.416;2024-03-02T11:52:27;38.88;;;23.10;;
45077;SDS011;60508;42.622;25.416;2024-03-02T11:55:14;43.92;;;24.10;;
45077;SDS011;60508;42.622;25.416;2024-03-02T11:57:42;48.72;;;25.55;;
45077;SDS011;60508;42.622;25.416;2024-03-02T12:00:29;45.17;;;24.27;;
45077;SDS011;60508;42.622;25.416;2024-03-02T12:03:02;41.25;;;21.60;;
45077;SDS011;60508;42.622;25.416;2024-03-02T12:05:30;45.97;;;22.48;;
45077;SDS011;60508;42.622;25.416;2024-03-02T12:07:58;42.20;;;20.52;;
45077;SDS011;60508;42.622;25.416;2024-03-02T12:10:30;52.92;;;22.02;;
45077;SDS011;60508;42.622;25.416;2024-03-02T12:13:00;44.75;;;22.15;;
45077;SDS011;60508;42.622;25.416;2024-03-02T12:15:31;40.40;;;19.95;;
45077;SDS011;60508;42.622;25.416;2024-03-02T12:18:18;33.80;;;19.90;;
45077;SDS011;60508;42.622;25.416;2024-03-02T12:20:45;39.08;;;19.98;;
45077;SDS011;60508;42.622;25.416;2024-03-02T12:23:11;42.80;;;19.95;;
45077;SDS011;60508;42.622;25.416;2024-03-02T12:25:38;36.35;;;18.50;;
45077;SDS011;60508;42.622;25.416;2024-03-02T12:28:04;34.05;;;19.13;;
45077;SDS011;60508;42.622;25.416;2024-03-02T12:30:51;32.55;;;18.85;;
45077;SDS011;60508;42.622;25.416;2024-03-02T12:33:18;46.28;;;19.10;;
45077;SDS011;60508;42.622;25.416;2024-03-02T12:35:45;39.55;;;20.75;;
45077;SDS011;60508;42.622;25.416;2024-03-02T12:38:32;35.25;;;19.70;;
45077;SDS011;60508;42.622;25.416;2024-03-02T12:40:58;37.72;;;19.42;;
45077;SDS011;60508;42.622;25.416;2024-03-02T12:43:45;40.80;;;16.90;;
45077;SDS011;60508;42.622;25.416;2024-03-02T12:46:11;32.78;;;18.17;;
45077;SDS011;60508;42.622;25.416;2024-03-02T12:48:58;40.30;;;20.08;;
45077;SDS011;60508;42.622;25.416;2024-03-02T12:54:13;33.80;;;20.60;;
45077;SDS011;60508;42.622;25.416;2024-03-02T12:56:40;38.88;;;20.75;;
45077;SDS011;60508;42.622;25.416;2024-03-02T12:59:31;38.90;;;20.98;;
45077;SDS011;60508;42.622;25.416;2024-03-02T13:01:57;42.15;;;22.23;;
45077;SDS011;60508;42.622;25.416;2024-03-02T13:04:24;43.40;;;21.60;;
45077;SDS011;60508;42.622;25.416;2024-03-02T13:06:52;41.75;;;21.75;;
45077;SDS011;60508;42.622;25.416;2024-03-02T13:09:19;41.92;;;21.60;;
45077;SDS011;60508;42.622;25.416;2024-03-02T13:11:46;39.85;;;22.15;;
45077;SDS011;60508;42.622;25.416;2024-03-02T13:14:33;36.97;;;19.15;;
45077;SDS011;60508;42.622;25.416;2024-03-02T13:17:01;35.33;;;21.30;;
45077;SDS011;60508;42.622;25.416;2024-03-02T13:19:30;41.15;;;23.23;;
45077;SDS011;60508;42.622;25.416;2024-03-02T13:21:57;41.50;;;20.10;;
45077;SDS011;60508;42.622;25.416;2024-03-02T13:24:24;37.10;;;21.83;;
45077;SDS011;60508;42.622;25.416;2024-03-02T13:26:57;35.45;;;18.17;;
45077;SDS011;60508;42.622;25.416;2024-03-02T13:29:29;34.70;;;18.23;;
45077;SDS011;60508;42.622;25.416;2024-03-02T13:31:55;39.78;;;21.73;;
45077;SDS011;60508;42.622;25.416;2024-03-02T13:34:43;35.38;;;21.55;;
45077;SDS011;60508;42.622;25.416;2024-03-02T13:37:10;32.80;;;20.20;;
45077;SDS011;60508;42.622;25.416;2024-03-02T13:39:36;44.80;;;24.48;;
45077;SDS011;60508;42.622;25.416;2024-03-02T13:42:07;40.00;;;23.48;;
45077;SDS011;60508;42.622;25.416;2024-03-02T13:44:35;39.00;;;24.00;;
45077;SDS011;60508;42.622;25.416;2024-03-02T13:47:22;37.80;;;21.23;;
45077;SDS011;60508;42.622;25.416;2024-03-02T13:49:49;40.25;;;20.83;;
45077;SDS011;60508;42.622;25.416;2024-03-02T13:52:15;42.65;;;21.35;;
45077;SDS011;60508;42.622;25.416;2024-03-02T13:55:05;42.38;;;22.48;;
45077;SDS011;60508;42.622;25.416;2024-03-02T13:57:31;32.03;;;20.15;;
45077;SDS011;60508;42.622;25.416;2024-03-02T13:59:58;33.47;;;19.90;;
45077;SDS011;60508;42.622;25.416;2024-03-02T14:02:24;37.58;;;20.95;;
45077;SDS011;60508;42.622;25.416;2024-03-02T14:04:51;39.70;;;22.25;;
45077;SDS011;60508;42.622;25.416;2024-03-02T14:07:18;34.60;;;17.83;;
45077;SDS011;60508;42.622;25.416;2024-03-02T14:09:44;48.58;;;27.52;;
45077;SDS011;60508;42.622;25.416;2024-03-02T14:12:12;57.30;;;28.77;;
45077;SDS011;60508;42.622;25.416;2024-03-02T14:14:39;40.97;;;23.77;;
45077;SDS011;60508;42.622;25.416;2024-03-02T14:17:26;43.83;;;22.60;;
45077;SDS011;60508;42.622;25.416;2024-03-02T14:19:52;40.75;;;21.52;;
45077;SDS011;60508;42.622;25.416;2024-03-02T14:22:19;47.60;;;22.65;;
45077;SDS011;60508;42.622;25.416;2024-03-02T14:24:46;36.42;;;23.23;;
45077;SDS011;60508;42.622;25.416;2024-03-02T14:27:13;38.45;;;24.63;;
45077;SDS011;60508;42.622;25.416;2024-03-02T14:29:41;37.03;;;20.77;;
45077;SDS011;60508;42.622;25.416;2024-03-02T14:32:09;38.08;;;21.75;;
45077;SDS011;60508;42.622;25.416;2024-03-02T14:34:35;36.42;;;20.02;;
45077;SDS011;60508;42.622;25.416;2024-03-02T14:37:22;33.20;;;20.10;;
45077;SDS011;60508;42.622;25.416;2024-03-02T14:39:52;37.08;;;18.95;;
45077;SDS011;60508;42.622;25.416;2024-03-02T14:42:42;39.65;;;19.65;;
45077;SDS011;60508;42.622;25.416;2024-03-02T14:45:13;33.22;;;18.95;;